sensor_id;sensor_type;location;lat;lon;timestamp;pressure;altitude;pressure_sealevel;temperature;humidity
49583;BME280;36329;48.816;44.624;2023-08-31T00:00:24;100981;;;18.2;46.6
49583;BME280;36329;48.816;44.624;2023-08-31T00:03:26;100980;;;18.2;46.3
49583;BME280;36329;48.816;44.624;2023-08-31T00:06:27;100981;;;18.2;47.3
49583;BME280;36329;48.816;44.624;2023-08-31T00:09:29;100982;;;18.1;45.9
49583;BME280;36329;48.816;44.624;2023-08-31T00:12:31;100982;;;18.1;45.8
49583;BME280;36329;48.816;44.624;2023-08-31T00:15:33;100984;;;18.1;47.1
49583;BME280;36329;48.816;44.624;2023-08-31T00:18:35;100980;;;18;46.5
49583;BME280;36329;48.816;44.624;2023-08-31T00:21:37;100976;;;18;46.9
49583;BME280;36329;48.816;44.624;2023-08-31T00:24:39;100981;;;18;46.8
49583;BME280;36329;48.816;44.624;2023-08-31T00:27:41;100984;;;17.9;46.3
49583;BME280;36329;48.816;44.624;2023-08-31T00:30:44;100986;;;17.9;46.3
49583;BME280;36329;48.816;44.624;2023-08-31T00:33:46;100988;;;18;45.9
49583;BME280;36329;48.816;44.624;2023-08-31T00:36:48;100989;;;18;46.3
49583;BME280;36329;48.816;44.624;2023-08-31T00:39:50;100991;;;18.1;46.1
49583;BME280;36329;48.816;44.624;2023-08-31T00:42:52;100992;;;18;45.6
49583;BME280;36329;48.816;44.624;2023-08-31T00:45:54;100989;;;18;45.9
49583;BME280;36329;48.816;44.624;2023-08-31T00:48:57;100990;;;17.8;47.2
49583;BME280;36329;48.816;44.624;2023-08-31T00:51:59;100993;;;17.8;47.3
49583;BME280;36329;48.816;44.624;2023-08-31T00:55:02;100990;;;17.7;46.9
49583;BME280;36329;48.816;44.624;2023-08-31T00:58:05;100988;;;17.7;47.8
49583;BME280;36329;48.816;44.624;2023-08-31T01:01:12;100984;;;17.7;47.8
49583;BME280;36329;48.816;44.624;2023-08-31T01:04:21;100983;;;17.7;48.5
49583;BME280;36329;48.816;44.624;2023-08-31T01:07:34;100989;;;17.7;47.2
49583;BME280;36329;48.816;44.624;2023-08-31T01:10:46;100991;;;17.6;47.7
49583;BME280;36329;48.816;44.624;2023-08-31T01:14:00;100985;;;17.6;47.8
49583;BME280;36329;48.816;44.624;2023-08-31T01:17:04;100984;;;17.6;47.5
49583;BME280;36329;48.816;44.624;2023-08-31T01:20:08;100982;;;17.6;47.6
49583;BME280;36329;48.816;44.624;2023-08-31T01:23:13;100988;;;17.7;48.2
49583;BME280;36329;48.816;44.624;2023-08-31T01:26:18;100986;;;17.6;47
49583;BME280;36329;48.816;44.624;2023-08-31T01:29:20;100987;;;17.6;47.6
49583;BME280;36329;48.816;44.624;2023-08-31T01:32:22;100981;;;17.3;47.8
49583;BME280;36329;48.816;44.624;2023-08-31T01:35:25;100983;;;17.3;47.6
49583;BME280;36329;48.816;44.624;2023-08-31T01:38:30;100984;;;17.2;48.2
49583;BME280;36329;48.816;44.624;2023-08-31T01:41:37;100986;;;17;49.4
49583;BME280;36329;48.816;44.624;2023-08-31T01:44:41;100979;;;17.1;49
49583;BME280;36329;48.816;44.624;2023-08-31T01:47:44;100984;;;17;49.1
49583;BME280;36329;48.816;44.624;2023-08-31T01:50:46;100983;;;17;49
49583;BME280;36329;48.816;44.624;2023-08-31T01:53:48;100984;;;17.1;48.6
49583;BME280;36329;48.816;44.624;2023-08-31T01:56:49;100991;;;16.9;48.9
49583;BME280;36329;48.816;44.624;2023-08-31T01:59:52;100997;;;16.9;49.3
49583;BME280;36329;48.816;44.624;2023-08-31T02:02:53;101006;;;16.8;49.5
49583;BME280;36329;48.816;44.624;2023-08-31T02:05:55;101007;;;16.8;50.5
49583;BME280;36329;48.816;44.624;2023-08-31T02:08:57;101010;;;16.7;50.1
49583;BME280;36329;48.816;44.624;2023-08-31T02:11:59;101013;;;16.6;50.5
49583;BME280;36329;48.816;44.624;2023-08-31T02:15:01;101017;;;16.6;50.7
49583;BME280;36329;48.816;44.624;2023-08-31T02:18:05;101018;;;16.7;51
49583;BME280;36329;48.816;44.624;2023-08-31T02:21:07;101023;;;16.7;51.2
49583;BME280;36329;48.816;44.624;2023-08-31T02:24:09;101025;;;16.6;51.5
49583;BME280;36329;48.816;44.624;2023-08-31T02:27:10;101028;;;16.5;51.7
49583;BME280;36329;48.816;44.624;2023-08-31T02:30:13;101027;;;16.5;52.1
49583;BME280;36329;48.816;44.624;2023-08-31T02:33:14;101030;;;16.5;51.9
49583;BME280;36329;48.816;44.624;2023-08-31T02:36:16;101030;;;16.5;52.2
49583;BME280;36329;48.816;44.624;2023-08-31T02:39:18;101036;;;16.5;52.4
49583;BME280;36329;48.816;44.624;2023-08-31T02:42:21;101037;;;16.6;51.8
49583;BME280;36329;48.816;44.624;2023-08-31T02:45:23;101032;;;16.7;51.8
49583;BME280;36329;48.816;44.624;2023-08-31T02:48:25;101037;;;16.9;51.7
49583;BME280;36329;48.816;44.624;2023-08-31T02:51:27;101032;;;16.9;51.6
49583;BME280;36329;48.816;44.624;2023-08-31T02:54:29;101035;;;16.9;51.9
49583;BME280;36329;48.816;44.624;2023-08-31T02:57:30;101033;;;17.1;51.8
49583;BME280;36329;48.816;44.624;2023-08-31T03:00:32;101036;;;17.2;51.8
49583;BME280;36329;48.816;44.624;2023-08-31T03:03:34;101034;;;17.3;51.6
49583;BME280;36329;48.816;44.624;2023-08-31T03:06:36;101039;;;17.5;51.8
49583;BME280;36329;48.816;44.624;2023-08-31T03:09:38;101035;;;17.7;51.4
49583;BME280;36329;48.816;44.624;2023-08-31T03:12:40;101039;;;17.7;51.2
49583;BME280;36329;48.816;44.624;2023-08-31T03:15:42;101043;;;17.7;51.2
49583;BME280;36329;48.816;44.624;2023-08-31T03:18:44;101045;;;17.7;53
49583;BME280;36329;48.816;44.624;2023-08-31T03:21:46;101051;;;17.8;53
49583;BME280;36329;48.816;44.624;2023-08-31T03:24:47;101057;;;17.9;52.4
49583;BME280;36329;48.816;44.624;2023-08-31T03:27:49;101049;;;18;52.7
49583;BME280;36329;48.816;44.624;2023-08-31T03:30:55;101053;;;18.1;52.9
49583;BME280;36329;48.816;44.624;2023-08-31T03:33:58;101046;;;18.1;53.2
49583;BME280;36329;48.816;44.624;2023-08-31T03:37:00;101050;;;18.2;53.3
49583;BME280;36329;48.816;44.624;2023-08-31T03:40:01;101052;;;18.3;53.5
49583;BME280;36329;48.816;44.624;2023-08-31T03:43:05;101048;;;18.4;54
49583;BME280;36329;48.816;44.624;2023-08-31T03:46:07;101049;;;18.6;54
49583;BME280;36329;48.816;44.624;2023-08-31T03:49:09;101049;;;18.9;54.3
49583;BME280;36329;48.816;44.624;2023-08-31T03:52:11;101044;;;18.9;54.9
49583;BME280;36329;48.816;44.624;2023-08-31T03:55:13;101044;;;19;55.6
49583;BME280;36329;48.816;44.624;2023-08-31T03:58:15;101050;;;19.1;56.3
49583;BME280;36329;48.816;44.624;2023-08-31T04:01:17;101046;;;19.2;56.7
49583;BME280;36329;48.816;44.624;2023-08-31T04:04:18;101049;;;19.3;57
49583;BME280;36329;48.816;44.624;2023-08-31T04:07:20;101048;;;19.4;56.7
49583;BME280;36329;48.816;44.624;2023-08-31T04:10:22;101052;;;19.5;57.9
49583;BME280;36329;48.816;44.624;2023-08-31T04:13:24;101052;;;19.6;58.1
49583;BME280;36329;48.816;44.624;2023-08-31T04:16:26;101050;;;19.7;59.2
49583;BME280;36329;48.816;44.624;2023-08-31T04:19:28;101046;;;19.9;59.2
49583;BME280;36329;48.816;44.624;2023-08-31T04:22:29;101049;;;20;59.4
49583;BME280;36329;48.816;44.624;2023-08-31T04:25:31;101052;;;20.2;60.7
49583;BME280;36329;48.816;44.624;2023-08-31T04:28:33;101051;;;20.3;61.5
49583;BME280;36329;48.816;44.624;2023-08-31T04:31:35;101050;;;20.5;61.6
49583;BME280;36329;48.816;44.624;2023-08-31T04:34:38;101051;;;20.7;61.8
49583;BME280;36329;48.816;44.624;2023-08-31T04:37:40;101054;;;20.8;62.3
49583;BME280;36329;48.816;44.624;2023-08-31T04:40:41;101052;;;20.9;62.1
49583;BME280;36329;48.816;44.624;2023-08-31T04:43:44;101055;;;21.1;62.7
49583;BME280;36329;48.816;44.624;2023-08-31T04:46:46;101053;;;21.3;61.5
49583;BME280;36329;48.816;44.624;2023-08-31T04:49:48;101060;;;21.6;60.8
49583;BME280;36329;48.816;44.624;2023-08-31T04:52:49;101061;;;21.8;60.9
49583;BME280;36329;48.816;44.624;2023-08-31T04:55:51;101066;;;22;59.3
49583;BME280;36329;48.816;44.624;2023-08-31T04:58:53;101058;;;22.1;58.1
49583;BME280;36329;48.816;44.624;2023-08-31T05:01:55;101061;;;22.4;58.4
49583;BME280;36329;48.816;44.624;2023-08-31T05:04:57;101060;;;22.6;56.5
49583;BME280;36329;48.816;44.624;2023-08-31T05:07:59;101068;;;22.8;55.4
49583;BME280;36329;48.816;44.624;2023-08-31T05:11:01;101064;;;23;52
49583;BME280;36329;48.816;44.624;2023-08-31T05:14:02;101063;;;23.1;51.8
49583;BME280;36329;48.816;44.624;2023-08-31T05:17:04;101074;;;23.3;52.2
49583;BME280;36329;48.816;44.624;2023-08-31T05:20:07;101080;;;23.5;51.1
49583;BME280;36329;48.816;44.624;2023-08-31T05:23:16;101081;;;23.6;49.4
49583;BME280;36329;48.816;44.624;2023-08-31T05:26:19;101087;;;23.8;49
49583;BME280;36329;48.816;44.624;2023-08-31T05:29:21;101089;;;23.9;46.9
49583;BME280;36329;48.816;44.624;2023-08-31T05:32:23;101084;;;24;48.4
49583;BME280;36329;48.816;44.624;2023-08-31T05:35:25;101078;;;24.2;48.9
49583;BME280;36329;48.816;44.624;2023-08-31T05:38:26;101078;;;24.2;50.2
49583;BME280;36329;48.816;44.624;2023-08-31T05:41:29;101077;;;24.4;48.6
49583;BME280;36329;48.816;44.624;2023-08-31T05:44:31;101077;;;24.4;45.5
49583;BME280;36329;48.816;44.624;2023-08-31T05:47:32;101082;;;24.5;44.8
49583;BME280;36329;48.816;44.624;2023-08-31T05:50:35;101090;;;24.6;41.7
49583;BME280;36329;48.816;44.624;2023-08-31T05:53:36;101090;;;24.7;43.3
49583;BME280;36329;48.816;44.624;2023-08-31T05:56:39;101093;;;24.9;40.5
49583;BME280;36329;48.816;44.624;2023-08-31T05:59:40;101086;;;25;39.6
49583;BME280;36329;48.816;44.624;2023-08-31T06:02:42;101093;;;25.1;40.1
49583;BME280;36329;48.816;44.624;2023-08-31T06:05:44;101095;;;25.2;37.4
49583;BME280;36329;48.816;44.624;2023-08-31T06:08:46;101098;;;25.6;40
49583;BME280;36329;48.816;44.624;2023-08-31T06:11:48;101093;;;25.9;36.6
49583;BME280;36329;48.816;44.624;2023-08-31T06:14:50;101098;;;26.2;35.1
49583;BME280;36329;48.816;44.624;2023-08-31T06:17:55;101102;;;26.4;35.2
49583;BME280;36329;48.816;44.624;2023-08-31T06:20:56;101104;;;26.5;33.6
49583;BME280;36329;48.816;44.624;2023-08-31T06:23:59;101108;;;26.7;34.4
49583;BME280;36329;48.816;44.624;2023-08-31T06:27:01;101109;;;27;33.4
49583;BME280;36329;48.816;44.624;2023-08-31T06:30:03;101113;;;27.1;32.3
49583;BME280;36329;48.816;44.624;2023-08-31T06:33:06;101113;;;27.3;32.4
49583;BME280;36329;48.816;44.624;2023-08-31T06:36:08;101111;;;27.5;32.8
49583;BME280;36329;48.816;44.624;2023-08-31T06:39:10;101118;;;27.6;30.8
49583;BME280;36329;48.816;44.624;2023-08-31T06:42:11;101120;;;27.8;29.3
49583;BME280;36329;48.816;44.624;2023-08-31T06:45:13;101124;;;27.9;29.4
49583;BME280;36329;48.816;44.624;2023-08-31T06:48:15;101123;;;28.3;29.1
49583;BME280;36329;48.816;44.624;2023-08-31T06:51:17;101125;;;28.3;29.2
49583;BME280;36329;48.816;44.624;2023-08-31T06:54:19;101129;;;28.6;29.3
49583;BME280;36329;48.816;44.624;2023-08-31T06:57:21;101126;;;28.7;27.9
49583;BME280;36329;48.816;44.624;2023-08-31T07:00:23;101121;;;28.7;27.5
49583;BME280;36329;48.816;44.624;2023-08-31T07:03:24;101124;;;29;26.2
49583;BME280;36329;48.816;44.624;2023-08-31T07:06:26;101125;;;29.2;26.1
49583;BME280;36329;48.816;44.624;2023-08-31T07:09:28;101120;;;29.4;26.9
49583;BME280;36329;48.816;44.624;2023-08-31T07:12:30;101119;;;29.7;26.2
49583;BME280;36329;48.816;44.624;2023-08-31T07:15:32;101116;;;30.1;25.1
49583;BME280;36329;48.816;44.624;2023-08-31T07:18:34;101115;;;29.8;25.2
49583;BME280;36329;48.816;44.624;2023-08-31T07:21:36;101116;;;29.9;24
49583;BME280;36329;48.816;44.624;2023-08-31T07:24:39;101116;;;30;23.5
49583;BME280;36329;48.816;44.624;2023-08-31T07:27:41;101111;;;29.7;23.1
49583;BME280;36329;48.816;44.624;2023-08-31T07:30:42;101113;;;30.3;23.3
49583;BME280;36329;48.816;44.624;2023-08-31T07:33:44;101109;;;30.8;21.6
49583;BME280;36329;48.816;44.624;2023-08-31T07:36:46;101110;;;31;21.9
49583;BME280;36329;48.816;44.624;2023-08-31T07:39:48;101111;;;31;21.4
49583;BME280;36329;48.816;44.624;2023-08-31T07:42:50;101113;;;31.1;21.6
49583;BME280;36329;48.816;44.624;2023-08-31T07:45:52;101115;;;31.2;21
49583;BME280;36329;48.816;44.624;2023-08-31T07:48:54;101104;;;31.3;19.8
49583;BME280;36329;48.816;44.624;2023-08-31T07:51:56;101104;;;31.4;20.7
49583;BME280;36329;48.816;44.624;2023-08-31T07:54:58;101099;;;31.5;21.4
49583;BME280;36329;48.816;44.624;2023-08-31T07:58:00;101102;;;31.5;19.8
49583;BME280;36329;48.816;44.624;2023-08-31T08:01:02;101104;;;31.8;20.3
49583;BME280;36329;48.816;44.624;2023-08-31T08:04:04;101105;;;31.7;21.3
49583;BME280;36329;48.816;44.624;2023-08-31T08:07:06;101105;;;31.7;21
49583;BME280;36329;48.816;44.624;2023-08-31T08:10:08;101106;;;31.8;21
49583;BME280;36329;48.816;44.624;2023-08-31T08:13:10;101106;;;31.8;21.1
49583;BME280;36329;48.816;44.624;2023-08-31T08:16:13;101109;;;32;21.3
49583;BME280;36329;48.816;44.624;2023-08-31T08:19:20;101106;;;32.3;20
49583;BME280;36329;48.816;44.624;2023-08-31T08:22:24;101109;;;32.1;20.4
49583;BME280;36329;48.816;44.624;2023-08-31T08:25:26;101102;;;31.9;19.5
49583;BME280;36329;48.816;44.624;2023-08-31T08:28:28;101104;;;31.8;19.8
49583;BME280;36329;48.816;44.624;2023-08-31T08:31:30;101105;;;31.8;20.2
49583;BME280;36329;48.816;44.624;2023-08-31T08:34:32;101109;;;31.9;18.7
49583;BME280;36329;48.816;44.624;2023-08-31T08:37:34;101115;;;32.1;18.9
49583;BME280;36329;48.816;44.624;2023-08-31T08:40:36;101112;;;32.3;17.8
49583;BME280;36329;48.816;44.624;2023-08-31T08:43:40;101107;;;31.9;18.9
49583;BME280;36329;48.816;44.624;2023-08-31T08:46:45;101108;;;32.3;18.6
49583;BME280;36329;48.816;44.624;2023-08-31T08:49:48;101100;;;32.6;18.3
49583;BME280;36329;48.816;44.624;2023-08-31T08:52:50;101100;;;32.4;18.8
49583;BME280;36329;48.816;44.624;2023-08-31T08:55:52;101089;;;32.1;18.2
49583;BME280;36329;48.816;44.624;2023-08-31T08:59:01;101095;;;32;18.7
49583;BME280;36329;48.816;44.624;2023-08-31T09:02:03;101089;;;32.2;18.5
49583;BME280;36329;48.816;44.624;2023-08-31T09:05:05;101084;;;32;18.2
49583;BME280;36329;48.816;44.624;2023-08-31T09:08:09;101084;;;32.4;18.2
49583;BME280;36329;48.816;44.624;2023-08-31T09:11:19;101084;;;32.3;18.2
49583;BME280;36329;48.816;44.624;2023-08-31T09:14:22;101072;;;31.7;18.1
49583;BME280;36329;48.816;44.624;2023-08-31T09:17:25;101075;;;32.2;18.2
49583;BME280;36329;48.816;44.624;2023-08-31T09:20:26;101076;;;32.7;18.1
49583;BME280;36329;48.816;44.624;2023-08-31T09:23:29;101079;;;32.3;17.2
49583;BME280;36329;48.816;44.624;2023-08-31T09:26:37;101078;;;32.4;16.1
49583;BME280;36329;48.816;44.624;2023-08-31T09:29:44;101075;;;32.6;16
49583;BME280;36329;48.816;44.624;2023-08-31T09:32:52;101079;;;32.7;15.2
49583;BME280;36329;48.816;44.624;2023-08-31T09:35:57;101083;;;32.8;16
49583;BME280;36329;48.816;44.624;2023-08-31T09:38:59;101082;;;32.9;16.4
49583;BME280;36329;48.816;44.624;2023-08-31T09:42:03;101079;;;32.7;16.5
49583;BME280;36329;48.816;44.624;2023-08-31T09:45:05;101087;;;32.3;16.5
49583;BME280;36329;48.816;44.624;2023-08-31T09:48:08;101084;;;32.5;16.7
49583;BME280;36329;48.816;44.624;2023-08-31T09:51:15;101090;;;32.5;16.5
49583;BME280;36329;48.816;44.624;2023-08-31T09:54:18;101087;;;32.6;17
49583;BME280;36329;48.816;44.624;2023-08-31T09:57:21;101087;;;32.3;16.7
49583;BME280;36329;48.816;44.624;2023-08-31T10:00:25;101084;;;32.4;16.5
49583;BME280;36329;48.816;44.624;2023-08-31T10:03:28;101080;;;32.5;16.2
49583;BME280;36329;48.816;44.624;2023-08-31T10:06:30;101078;;;32.7;16.6
49583;BME280;36329;48.816;44.624;2023-08-31T10:09:33;101078;;;32.5;16.2
49583;BME280;36329;48.816;44.624;2023-08-31T10:12:35;101078;;;32.1;17
49583;BME280;36329;48.816;44.624;2023-08-31T10:15:37;101077;;;32.1;16.3
49583;BME280;36329;48.816;44.624;2023-08-31T10:18:40;101077;;;32;17
49583;BME280;36329;48.816;44.624;2023-08-31T10:21:42;101074;;;31.9;16.9
49583;BME280;36329;48.816;44.624;2023-08-31T10:25:00;101064;;;31.8;17.4
49583;BME280;36329;48.816;44.624;2023-08-31T10:28:16;101068;;;31.8;17.4
49583;BME280;36329;48.816;44.624;2023-08-31T10:31:19;101064;;;31;17.8
49583;BME280;36329;48.816;44.624;2023-08-31T10:34:35;101064;;;31.5;17.8
49583;BME280;36329;48.816;44.624;2023-08-31T10:37:39;101062;;;31.5;17.9
49583;BME280;36329;48.816;44.624;2023-08-31T10:40:41;101064;;;31.7;17.2
49583;BME280;36329;48.816;44.624;2023-08-31T10:43:44;101063;;;31.5;17.5
49583;BME280;36329;48.816;44.624;2023-08-31T10:46:46;101057;;;31.7;16.9
49583;BME280;36329;48.816;44.624;2023-08-31T10:49:50;101053;;;31.8;16.4
49583;BME280;36329;48.816;44.624;2023-08-31T10:52:52;101053;;;31.6;17.2
49583;BME280;36329;48.816;44.624;2023-08-31T10:55:54;101049;;;31.3;16.9
49583;BME280;36329;48.816;44.624;2023-08-31T10:58:58;101039;;;31.1;18.1
49583;BME280;36329;48.816;44.624;2023-08-31T11:02:01;101040;;;31.4;18.6
49583;BME280;36329;48.816;44.624;2023-08-31T11:05:07;101034;;;31;18.7
49583;BME280;36329;48.816;44.624;2023-08-31T11:08:09;101038;;;31.3;17.9
49583;BME280;36329;48.816;44.624;2023-08-31T11:11:11;101037;;;30.6;18.4
49583;BME280;36329;48.816;44.624;2023-08-31T11:14:13;101034;;;31.1;18.4
49583;BME280;36329;48.816;44.624;2023-08-31T11:17:16;101038;;;31.1;18.5
49583;BME280;36329;48.816;44.624;2023-08-31T11:20:19;101039;;;31.2;18.4
49583;BME280;36329;48.816;44.624;2023-08-31T11:23:21;101032;;;31.1;18.6
49583;BME280;36329;48.816;44.624;2023-08-31T11:26:23;101029;;;30.2;19.1
49583;BME280;36329;48.816;44.624;2023-08-31T11:29:26;101024;;;29.8;18.9
49583;BME280;36329;48.816;44.624;2023-08-31T11:32:28;101021;;;29.9;18.8
49583;BME280;36329;48.816;44.624;2023-08-31T11:35:33;101016;;;29.7;18.4
49583;BME280;36329;48.816;44.624;2023-08-31T11:38:35;101017;;;29.6;19.6
49583;BME280;36329;48.816;44.624;2023-08-31T11:41:37;101012;;;29.2;19.8
49583;BME280;36329;48.816;44.624;2023-08-31T11:44:40;101014;;;29.2;20.6
49583;BME280;36329;48.816;44.624;2023-08-31T11:47:43;101009;;;29.4;20.2
49583;BME280;36329;48.816;44.624;2023-08-31T11:50:45;101004;;;29.6;20.4
49583;BME280;36329;48.816;44.624;2023-08-31T11:53:48;101004;;;29.7;20.7
49583;BME280;36329;48.816;44.624;2023-08-31T11:56:50;101002;;;29.5;20.6
49583;BME280;36329;48.816;44.624;2023-08-31T11:59:52;100999;;;29.4;21.6
49583;BME280;36329;48.816;44.624;2023-08-31T12:02:57;100999;;;29.4;20.7
49583;BME280;36329;48.816;44.624;2023-08-31T12:05:59;100996;;;29.1;21.3
49583;BME280;36329;48.816;44.624;2023-08-31T12:09:02;100992;;;29.3;21.1
49583;BME280;36329;48.816;44.624;2023-08-31T12:12:04;100990;;;29.1;21.1
49583;BME280;36329;48.816;44.624;2023-08-31T12:15:07;100987;;;29.1;20.8
49583;BME280;36329;48.816;44.624;2023-08-31T12:18:10;100984;;;29.2;21.1
49583;BME280;36329;48.816;44.624;2023-08-31T12:21:12;100980;;;29.2;20.8
49583;BME280;36329;48.816;44.624;2023-08-31T12:24:14;100981;;;29.1;21.1
49583;BME280;36329;48.816;44.624;2023-08-31T12:27:16;100980;;;29.1;21.9
49583;BME280;36329;48.816;44.624;2023-08-31T12:30:18;100984;;;28.9;22.4
49583;BME280;36329;48.816;44.624;2023-08-31T12:33:20;100981;;;29;22
49583;BME280;36329;48.816;44.624;2023-08-31T12:36:23;100976;;;29;21.6
49583;BME280;36329;48.816;44.624;2023-08-31T12:39:25;100977;;;29;21.2
49583;BME280;36329;48.816;44.624;2023-08-31T12:42:26;100969;;;29;22.1
49583;BME280;36329;48.816;44.624;2023-08-31T12:45:28;100971;;;29;22.4
49583;BME280;36329;48.816;44.624;2023-08-31T12:48:31;100964;;;28.9;22.5
49583;BME280;36329;48.816;44.624;2023-08-31T12:51:33;100963;;;28.9;22.3
49583;BME280;36329;48.816;44.624;2023-08-31T12:54:35;100964;;;28.9;22.6
49583;BME280;36329;48.816;44.624;2023-08-31T12:57:36;100963;;;28.8;22.9
49583;BME280;36329;48.816;44.624;2023-08-31T13:00:39;100957;;;28.7;22.5
49583;BME280;36329;48.816;44.624;2023-08-31T13:03:40;100964;;;28.8;22.5
49583;BME280;36329;48.816;44.624;2023-08-31T13:06:42;100958;;;28.7;22.4
49583;BME280;36329;48.816;44.624;2023-08-31T13:09:46;100961;;;28.7;22.2
49583;BME280;36329;48.816;44.624;2023-08-31T13:12:48;100960;;;28.4;22.7
49583;BME280;36329;48.816;44.624;2023-08-31T13:15:50;100958;;;28.5;22.4
49583;BME280;36329;48.816;44.624;2023-08-31T13:18:52;100959;;;28.5;22.1
49583;BME280;36329;48.816;44.624;2023-08-31T13:21:54;100958;;;28.5;22.5
49583;BME280;36329;48.816;44.624;2023-08-31T13:24:56;100948;;;28.4;22.5
49583;BME280;36329;48.816;44.624;2023-08-31T13:27:59;100951;;;28.4;22.5
49583;BME280;36329;48.816;44.624;2023-08-31T13:31:01;100945;;;28.3;22.2
49583;BME280;36329;48.816;44.624;2023-08-31T13:34:03;100944;;;28.3;22.3
49583;BME280;36329;48.816;44.624;2023-08-31T13:37:05;100940;;;28.2;22.5
49583;BME280;36329;48.816;44.624;2023-08-31T13:40:07;100938;;;28.1;23
49583;BME280;36329;48.816;44.624;2023-08-31T13:43:09;100933;;;28;23.1
49583;BME280;36329;48.816;44.624;2023-08-31T13:46:11;100931;;;28;23.2
49583;BME280;36329;48.816;44.624;2023-08-31T13:49:13;100930;;;28;23.3
49583;BME280;36329;48.816;44.624;2023-08-31T13:52:15;100934;;;28;22.9
49583;BME280;36329;48.816;44.624;2023-08-31T13:55:17;100930;;;27.9;23.1
49583;BME280;36329;48.816;44.624;2023-08-31T13:58:19;100929;;;27.9;23.5
49583;BME280;36329;48.816;44.624;2023-08-31T14:01:21;100934;;;27.9;23.6
49583;BME280;36329;48.816;44.624;2023-08-31T14:04:23;100928;;;27.8;23.3
49583;BME280;36329;48.816;44.624;2023-08-31T14:07:25;100929;;;27.8;23.6
49583;BME280;36329;48.816;44.624;2023-08-31T14:10:27;100933;;;27.7;24.2
49583;BME280;36329;48.816;44.624;2023-08-31T14:13:30;100928;;;27.6;24.5
49583;BME280;36329;48.816;44.624;2023-08-31T14:16:32;100927;;;27.5;25.2
49583;BME280;36329;48.816;44.624;2023-08-31T14:19:34;100922;;;27.5;25.5
49583;BME280;36329;48.816;44.624;2023-08-31T14:22:35;100920;;;27.4;25.9
49583;BME280;36329;48.816;44.624;2023-08-31T14:25:38;100929;;;27.4;26.1
49583;BME280;36329;48.816;44.624;2023-08-31T14:28:39;100922;;;27.3;24.9
49583;BME280;36329;48.816;44.624;2023-08-31T14:31:41;100919;;;27.3;25.3
49583;BME280;36329;48.816;44.624;2023-08-31T14:34:43;100923;;;27.3;24.9
49583;BME280;36329;48.816;44.624;2023-08-31T14:37:46;100927;;;27.3;24.8
49583;BME280;36329;48.816;44.624;2023-08-31T14:40:48;100918;;;27.2;25.1
49583;BME280;36329;48.816;44.624;2023-08-31T14:43:50;100927;;;27.2;25.2
49583;BME280;36329;48.816;44.624;2023-08-31T14:46:52;100917;;;27.2;24.9
49583;BME280;36329;48.816;44.624;2023-08-31T14:49:55;100920;;;27.1;24.7
49583;BME280;36329;48.816;44.624;2023-08-31T14:52:57;100929;;;27;24.7
49583;BME280;36329;48.816;44.624;2023-08-31T14:55:59;100928;;;27;25
49583;BME280;36329;48.816;44.624;2023-08-31T14:59:01;100931;;;27;25.8
49583;BME280;36329;48.816;44.624;2023-08-31T15:02:03;100930;;;27;25.5
49583;BME280;36329;48.816;44.624;2023-08-31T15:05:05;100931;;;27;26.2
49583;BME280;36329;48.816;44.624;2023-08-31T15:08:07;100934;;;26.9;26.7
49583;BME280;36329;48.816;44.624;2023-08-31T15:11:10;100927;;;26.8;27.5
49583;BME280;36329;48.816;44.624;2023-08-31T15:14:12;100921;;;26.7;27.9
49583;BME280;36329;48.816;44.624;2023-08-31T15:17:14;100927;;;26.7;27.1
49583;BME280;36329;48.816;44.624;2023-08-31T15:20:16;100924;;;26.6;28.5
49583;BME280;36329;48.816;44.624;2023-08-31T15:23:18;100924;;;26.5;28.8
49583;BME280;36329;48.816;44.624;2023-08-31T15:26:19;100925;;;26.5;28.2
49583;BME280;36329;48.816;44.624;2023-08-31T15:29:22;100924;;;26.5;28.7
49583;BME280;36329;48.816;44.624;2023-08-31T15:32:23;100926;;;26.4;28.3
49583;BME280;36329;48.816;44.624;2023-08-31T15:35:25;100926;;;26.4;29.3
49583;BME280;36329;48.816;44.624;2023-08-31T15:38:27;100931;;;26.4;29.1
49583;BME280;36329;48.816;44.624;2023-08-31T15:41:29;100927;;;26.3;29.7
49583;BME280;36329;48.816;44.624;2023-08-31T15:44:31;100931;;;26.2;29.5
49583;BME280;36329;48.816;44.624;2023-08-31T15:47:33;100930;;;26.1;29.6
49583;BME280;36329;48.816;44.624;2023-08-31T15:50:35;100933;;;26.1;30
49583;BME280;36329;48.816;44.624;2023-08-31T15:53:37;100933;;;26;31.3
49583;BME280;36329;48.816;44.624;2023-08-31T15:56:39;100934;;;26;30.9
49583;BME280;36329;48.816;44.624;2023-08-31T15:59:41;100935;;;25.9;31.1
49583;BME280;36329;48.816;44.624;2023-08-31T16:02:43;100934;;;25.9;31.6
49583;BME280;36329;48.816;44.624;2023-08-31T16:05:48;100934;;;25.8;33.2
49583;BME280;36329;48.816;44.624;2023-08-31T16:08:50;100936;;;25.8;32.8
49583;BME280;36329;48.816;44.624;2023-08-31T16:11:52;100945;;;25.6;33.8
49583;BME280;36329;48.816;44.624;2023-08-31T16:14:55;100947;;;25.6;33.6
49583;BME280;36329;48.816;44.624;2023-08-31T16:17:57;100943;;;25.4;31.9
49583;BME280;36329;48.816;44.624;2023-08-31T16:20:59;100943;;;25.5;33.2
49583;BME280;36329;48.816;44.624;2023-08-31T16:24:01;100948;;;25.4;34.1
49583;BME280;36329;48.816;44.624;2023-08-31T16:27:03;100945;;;25.3;33.6
49583;BME280;36329;48.816;44.624;2023-08-31T16:30:05;100951;;;25.3;35
49583;BME280;36329;48.816;44.624;2023-08-31T16:33:08;100946;;;25.3;35.4
49583;BME280;36329;48.816;44.624;2023-08-31T16:36:10;100949;;;25.3;35.1
49583;BME280;36329;48.816;44.624;2023-08-31T16:39:12;100953;;;25.2;34.5
49583;BME280;36329;48.816;44.624;2023-08-31T16:42:13;100957;;;25.1;33.7
49583;BME280;36329;48.816;44.624;2023-08-31T16:45:15;100953;;;25.1;34.7
49583;BME280;36329;48.816;44.624;2023-08-31T16:48:17;100947;;;25;35.4
49583;BME280;36329;48.816;44.624;2023-08-31T16:51:19;100949;;;25;36.6